sensor_id;sensor_type;location;lat;lon;timestamp;P1;durP1;ratioP1;P2;durP2;ratioP2
42682;SDS011;28293;50.930;3.464;2022-09-30T00:01:37;25.40;;;22.40;;
42682;SDS011;28293;50.930;3.464;2022-09-30T00:04:07;22.58;;;20.17;;
42682;SDS011;28293;50.930;3.464;2022-09-30T00:06:37;23.20;;;20.48;;
42682;SDS011;28293;50.930;3.464;2022-09-30T00:09:02;23.40;;;20.85;;
42682;SDS011;28293;50.930;3.464;2022-09-30T00:11:30;25.88;;;22.45;;
42682;SDS011;28293;50.930;3.464;2022-09-30T00:13:58;25.17;;;22.48;;
42682;SDS011;28293;50.930;3.464;2022-09-30T00:16:26;26.98;;;23.48;;
42682;SDS011;28293;50.930;3.464;2022-09-30T00:18:55;25.98;;;22.98;;
42682;SDS011;28293;50.930;3.464;2022-09-30T00:21:22;28.70;;;24.08;;
42682;SDS011;28293;50.930;3.464;2022-09-30T00:23:48;25.75;;;23.05;;
42682;SDS011;28293;50.930;3.464;2022-09-30T00:26:15;24.35;;;21.20;;
42682;SDS011;28293;50.930;3.464;2022-09-30T00:28:43;23.73;;;20.92;;
42682;SDS011;28293;50.930;3.464;2022-09-30T00:31:13;30.85;;;23.00;;
42682;SDS011;28293;50.930;3.464;2022-09-30T00:33:40;24.05;;;21.50;;
42682;SDS011;28293;50.930;3.464;2022-09-30T00:36:06;27.05;;;24.15;;
42682;SDS011;28293;50.930;3.464;2022-09-30T00:38:32;25.15;;;21.85;;
42682;SDS011;28293;50.930;3.464;2022-09-30T00:40:58;24.58;;;22.08;;
42682;SDS011;28293;50.930;3.464;2022-09-30T00:43:45;24.20;;;21.60;;
42682;SDS011;28293;50.930;3.464;2022-09-30T00:48:43;23.83;;;21.17;;
42682;SDS011;28293;50.930;3.464;2022-09-30T00:51:09;23.65;;;21.15;;
42682;SDS011;28293;50.930;3.464;2022-09-30T00:53:41;22.30;;;19.92;;
42682;SDS011;28293;50.930;3.464;2022-09-30T00:56:16;21.77;;;19.23;;
42682;SDS011;28293;50.930;3.464;2022-09-30T00:58:45;22.98;;;20.48;;
42682;SDS011;28293;50.930;3.464;2022-09-30T01:01:17;23.35;;;20.48;;
42682;SDS011;28293;50.930;3.464;2022-09-30T01:03:44;23.15;;;20.58;;
42682;SDS011;28293;50.930;3.464;2022-09-30T01:06:11;27.70;;;21.20;;
42682;SDS011;28293;50.930;3.464;2022-09-30T01:08:37;24.92;;;22.27;;
42682;SDS011;28293;50.930;3.464;2022-09-30T01:11:04;21.88;;;19.65;;
42682;SDS011;28293;50.930;3.464;2022-09-30T01:13:30;24.98;;;21.05;;
42682;SDS011;28293;50.930;3.464;2022-09-30T01:16:04;26.55;;;22.60;;
42682;SDS011;28293;50.930;3.464;2022-09-30T01:18:59;23.08;;;20.42;;
42682;SDS011;28293;50.930;3.464;2022-09-30T01:28:12;22.90;;;20.40;;
42682;SDS011;28293;50.930;3.464;2022-09-30T01:33:54;25.95;;;23.20;;
42682;SDS011;28293;50.930;3.464;2022-09-30T01:47:35;29.58;;;24.42;;
42682;SDS011;28293;50.930;3.464;2022-09-30T01:50:15;25.85;;;22.58;;
42682;SDS011;28293;50.930;3.464;2022-09-30T01:52:54;25.05;;;22.45;;
42682;SDS011;28293;50.930;3.464;2022-09-30T01:56:40;22.90;;;20.65;;
42682;SDS011;28293;50.930;3.464;2022-09-30T01:58:46;22.85;;;20.45;;
42682;SDS011;28293;50.930;3.464;2022-09-30T02:01:22;23.30;;;20.80;;
42682;SDS011;28293;50.930;3.464;2022-09-30T02:03:57;23.33;;;20.90;;
42682;SDS011;28293;50.930;3.464;2022-09-30T02:06:30;21.90;;;19.60;;
42682;SDS011;28293;50.930;3.464;2022-09-30T02:09:03;24.58;;;21.20;;
42682;SDS011;28293;50.930;3.464;2022-09-30T02:11:45;22.55;;;20.15;;
42682;SDS011;28293;50.930;3.464;2022-09-30T02:14:13;24.05;;;21.52;;
42682;SDS011;28293;50.930;3.464;2022-09-30T02:19:34;23.02;;;20.60;;
42682;SDS011;28293;50.930;3.464;2022-09-30T02:22:09;23.77;;;21.38;;
42682;SDS011;28293;50.930;3.464;2022-09-30T02:24:42;24.30;;;21.73;;
42682;SDS011;28293;50.930;3.464;2022-09-30T02:27:20;24.08;;;21.33;;
42682;SDS011;28293;50.930;3.464;2022-09-30T02:29:56;20.52;;;18.17;;
42682;SDS011;28293;50.930;3.464;2022-09-30T02:32:32;24.30;;;20.38;;
42682;SDS011;28293;50.930;3.464;2022-09-30T02:35:11;23.42;;;20.98;;
42682;SDS011;28293;50.930;3.464;2022-09-30T02:37:42;22.67;;;20.13;;
42682;SDS011;28293;50.930;3.464;2022-09-30T02:40:13;24.42;;;20.52;;
42682;SDS011;28293;50.930;3.464;2022-09-30T02:42:43;22.13;;;19.58;;
42682;SDS011;28293;50.930;3.464;2022-09-30T02:45:13;23.67;;;19.88;;
42682;SDS011;28293;50.930;3.464;2022-09-30T02:53:11;21.25;;;18.65;;
42682;SDS011;28293;50.930;3.464;2022-09-30T02:58:58;24.10;;;21.50;;
42682;SDS011;28293;50.930;3.464;2022-09-30T03:01:24;22.20;;;19.90;;
42682;SDS011;28293;50.930;3.464;2022-09-30T03:03:50;23.73;;;21.15;;
42682;SDS011;28293;50.930;3.464;2022-09-30T03:06:22;22.48;;;20.05;;
42682;SDS011;28293;50.930;3.464;2022-09-30T03:08:49;23.23;;;20.55;;
42682;SDS011;28293;50.930;3.464;2022-09-30T03:11:17;23.08;;;20.65;;
42682;SDS011;28293;50.930;3.464;2022-09-30T03:24:32;24.05;;;21.48;;
42682;SDS011;28293;50.930;3.464;2022-09-30T03:27:15;26.30;;;22.80;;
42682;SDS011;28293;50.930;3.464;2022-09-30T03:30:06;25.60;;;22.25;;
42682;SDS011;28293;50.930;3.464;2022-09-30T03:35:30;22.38;;;20.05;;
42682;SDS011;28293;50.930;3.464;2022-09-30T03:46:56;22.98;;;19.50;;
42682;SDS011;28293;50.930;3.464;2022-09-30T03:49:31;24.85;;;22.25;;
42682;SDS011;28293;50.930;3.464;2022-09-30T03:54:31;23.13;;;20.73;;
42682;SDS011;28293;50.930;3.464;2022-09-30T03:56:57;23.10;;;20.65;;
42682;SDS011;28293;50.930;3.464;2022-09-30T03:59:27;27.20;;;22.85;;
42682;SDS011;28293;50.930;3.464;2022-09-30T04:01:53;26.27;;;22.77;;
42682;SDS011;28293;50.930;3.464;2022-09-30T04:04:20;24.98;;;22.40;;
42682;SDS011;28293;50.930;3.464;2022-09-30T04:06:46;25.08;;;21.80;;
42682;SDS011;28293;50.930;3.464;2022-09-30T04:09:12;27.52;;;24.15;;
42682;SDS011;28293;50.930;3.464;2022-09-30T04:11:37;25.10;;;22.45;;
42682;SDS011;28293;50.930;3.464;2022-09-30T04:14:03;27.92;;;24.92;;
42682;SDS011;28293;50.930;3.464;2022-09-30T04:16:30;26.25;;;23.13;;
42682;SDS011;28293;50.930;3.464;2022-09-30T04:18:56;27.25;;;24.55;;
42682;SDS011;28293;50.930;3.464;2022-09-30T04:21:22;28.40;;;23.95;;
42682;SDS011;28293;50.930;3.464;2022-09-30T04:23:48;26.23;;;23.42;;
42682;SDS011;28293;50.930;3.464;2022-09-30T04:26:15;27.90;;;23.48;;
42682;SDS011;28293;50.930;3.464;2022-09-30T04:28:41;27.60;;;23.50;;
42682;SDS011;28293;50.930;3.464;2022-09-30T04:31:08;28.00;;;25.00;;
42682;SDS011;28293;50.930;3.464;2022-09-30T04:33:35;26.00;;;23.20;;
42682;SDS011;28293;50.930;3.464;2022-09-30T04:36:01;28.58;;;24.13;;
42682;SDS011;28293;50.930;3.464;2022-09-30T04:38:28;28.05;;;23.95;;
42682;SDS011;28293;50.930;3.464;2022-09-30T04:40:55;27.75;;;24.77;;
42682;SDS011;28293;50.930;3.464;2022-09-30T04:43:21;27.33;;;24.17;;
42682;SDS011;28293;50.930;3.464;2022-09-30T04:45:48;30.80;;;23.95;;
42682;SDS011;28293;50.930;3.464;2022-09-30T04:48:16;28.40;;;24.35;;
42682;SDS011;28293;50.930;3.464;2022-09-30T04:50:42;29.40;;;24.13;;
42682;SDS011;28293;50.930;3.464;2022-09-30T04:53:08;27.23;;;23.83;;
42682;SDS011;28293;50.930;3.464;2022-09-30T04:55:36;26.65;;;23.77;;
42682;SDS011;28293;50.930;3.464;2022-09-30T04:58:01;24.33;;;21.42;;
42682;SDS011;28293;50.930;3.464;2022-09-30T05:00:28;28.05;;;25.15;;
42682;SDS011;28293;50.930;3.464;2022-09-30T05:02:54;29.58;;;25.52;;
42682;SDS011;28293;50.930;3.464;2022-09-30T05:05:20;28.55;;;24.65;;
42682;SDS011;28293;50.930;3.464;2022-09-30T05:07:45;28.73;;;25.73;;
42682;SDS011;28293;50.930;3.464;2022-09-30T05:10:11;31.77;;;26.45;;
42682;SDS011;28293;50.930;3.464;2022-09-30T05:12:37;27.98;;;24.13;;
42682;SDS011;28293;50.930;3.464;2022-09-30T05:15:07;29.67;;;23.30;;
42682;SDS011;28293;50.930;3.464;2022-09-30T05:17:33;29.50;;;24.05;;
42682;SDS011;28293;50.930;3.464;2022-09-30T05:19:59;28.38;;;23.58;;
42682;SDS011;28293;50.930;3.464;2022-09-30T05:22:25;28.70;;;24.42;;
42682;SDS011;28293;50.930;3.464;2022-09-30T05:24:51;28.80;;;23.15;;
42682;SDS011;28293;50.930;3.464;2022-09-30T05:27:18;30.20;;;25.30;;
42682;SDS011;28293;50.930;3.464;2022-09-30T05:29:44;32.55;;;25.70;;
42682;SDS011;28293;50.930;3.464;2022-09-30T05:32:10;27.65;;;24.42;;
42682;SDS011;28293;50.930;3.464;2022-09-30T05:34:36;27.73;;;22.88;;
42682;SDS011;28293;50.930;3.464;2022-09-30T05:37:03;25.90;;;22.50;;
42682;SDS011;28293;50.930;3.464;2022-09-30T05:39:33;25.70;;;22.98;;
42682;SDS011;28293;50.930;3.464;2022-09-30T05:41:59;30.80;;;24.20;;
42682;SDS011;28293;50.930;3.464;2022-09-30T05:44:25;27.77;;;23.95;;
42682;SDS011;28293;50.930;3.464;2022-09-30T05:46:50;27.02;;;22.33;;
42682;SDS011;28293;50.930;3.464;2022-09-30T05:49:16;26.13;;;22.95;;
42682;SDS011;28293;50.930;3.464;2022-09-30T05:51:42;26.92;;;24.00;;
42682;SDS011;28293;50.930;3.464;2022-09-30T05:54:08;30.30;;;26.58;;
42682;SDS011;28293;50.930;3.464;2022-09-30T05:56:34;33.20;;;25.77;;
42682;SDS011;28293;50.930;3.464;2022-09-30T05:59:02;30.30;;;25.65;;
42682;SDS011;28293;50.930;3.464;2022-09-30T06:01:28;31.45;;;24.80;;
42682;SDS011;28293;50.930;3.464;2022-09-30T06:03:54;29.17;;;26.08;;
42682;SDS011;28293;50.930;3.464;2022-09-30T06:06:20;31.90;;;25.42;;
42682;SDS011;28293;50.930;3.464;2022-09-30T06:08:46;29.48;;;23.80;;
42682;SDS011;28293;50.930;3.464;2022-09-30T06:11:13;28.60;;;24.30;;
42682;SDS011;28293;50.930;3.464;2022-09-30T06:13:40;27.55;;;23.55;;
42682;SDS011;28293;50.930;3.464;2022-09-30T06:16:07;25.52;;;22.83;;
42682;SDS011;28293;50.930;3.464;2022-09-30T06:18:33;25.58;;;20.80;;
42682;SDS011;28293;50.930;3.464;2022-09-30T06:21:01;23.15;;;20.08;;
42682;SDS011;28293;50.930;3.464;2022-09-30T06:23:29;22.23;;;18.73;;
42682;SDS011;28293;50.930;3.464;2022-09-30T06:25:56;21.52;;;18.75;;
42682;SDS011;28293;50.930;3.464;2022-09-30T06:28:23;19.25;;;15.50;;
42682;SDS011;28293;50.930;3.464;2022-09-30T06:30:49;20.98;;;17.13;;
42682;SDS011;28293;50.930;3.464;2022-09-30T06:33:15;24.05;;;17.52;;
42682;SDS011;28293;50.930;3.464;2022-09-30T06:35:41;19.08;;;16.75;;
42682;SDS011;28293;50.930;3.464;2022-09-30T06:38:10;19.42;;;16.40;;
42682;SDS011;28293;50.930;3.464;2022-09-30T06:40:36;20.65;;;17.02;;
42682;SDS011;28293;50.930;3.464;2022-09-30T06:43:02;22.25;;;18.40;;
42682;SDS011;28293;50.930;3.464;2022-09-30T06:45:28;21.75;;;19.42;;
42682;SDS011;28293;50.930;3.464;2022-09-30T06:47:57;24.95;;;19.73;;
42682;SDS011;28293;50.930;3.464;2022-09-30T06:50:24;24.15;;;19.48;;
42682;SDS011;28293;50.930;3.464;2022-09-30T06:52:49;22.42;;;18.60;;
42682;SDS011;28293;50.930;3.464;2022-09-30T06:55:15;21.60;;;18.90;;
42682;SDS011;28293;50.930;3.464;2022-09-30T06:57:43;25.95;;;20.15;;
42682;SDS011;28293;50.930;3.464;2022-09-30T07:00:10;24.88;;;18.60;;
42682;SDS011;28293;50.930;3.464;2022-09-30T07:02:36;24.55;;;19.25;;
42682;SDS011;28293;50.930;3.464;2022-09-30T07:05:04;24.55;;;18.13;;
42682;SDS011;28293;50.930;3.464;2022-09-30T07:07:29;25.67;;;18.05;;
42682;SDS011;28293;50.930;3.464;2022-09-30T07:09:58;25.08;;;19.23;;
42682;SDS011;28293;50.930;3.464;2022-09-30T07:12:24;24.83;;;19.23;;
42682;SDS011;28293;50.930;3.464;2022-09-30T07:14:50;23.27;;;18.83;;
42682;SDS011;28293;50.930;3.464;2022-09-30T07:17:16;29.45;;;20.63;;
42682;SDS011;28293;50.930;3.464;2022-09-30T07:19:42;24.02;;;19.48;;
42682;SDS011;28293;50.930;3.464;2022-09-30T07:22:08;30.25;;;19.15;;
42682;SDS011;28293;50.930;3.464;2022-09-30T07:24:54;30.88;;;24.08;;
42682;SDS011;28293;50.930;3.464;2022-09-30T07:27:21;37.50;;;31.08;;
42682;SDS011;28293;50.930;3.464;2022-09-30T07:29:47;35.60;;;29.83;;
42682;SDS011;28293;50.930;3.464;2022-09-30T07:32:13;30.65;;;26.08;;
42682;SDS011;28293;50.930;3.464;2022-09-30T07:34:40;25.70;;;21.10;;
42682;SDS011;28293;50.930;3.464;2022-09-30T07:37:08;26.02;;;19.88;;
42682;SDS011;28293;50.930;3.464;2022-09-30T07:39:36;25.05;;;18.52;;
42682;SDS011;28293;50.930;3.464;2022-09-30T07:42:03;24.80;;;18.85;;
42682;SDS011;28293;50.930;3.464;2022-09-30T07:44:29;26.63;;;18.50;;
42682;SDS011;28293;50.930;3.464;2022-09-30T07:46:56;24.80;;;18.10;;
42682;SDS011;28293;50.930;3.464;2022-09-30T07:49:22;24.48;;;17.48;;
42682;SDS011;28293;50.930;3.464;2022-09-30T07:51:49;24.25;;;16.98;;
42682;SDS011;28293;50.930;3.464;2022-09-30T07:54:21;24.30;;;16.55;;
42682;SDS011;28293;50.930;3.464;2022-09-30T07:56:49;23.88;;;17.10;;
42682;SDS011;28293;50.930;3.464;2022-09-30T07:59:16;23.17;;;15.68;;
42682;SDS011;28293;50.930;3.464;2022-09-30T08:01:42;23.75;;;17.02;;
42682;SDS011;28293;50.930;3.464;2022-09-30T08:04:09;22.08;;;16.10;;
42682;SDS011;28293;50.930;3.464;2022-09-30T08:06:40;21.77;;;16.17;;
42682;SDS011;28293;50.930;3.464;2022-09-30T08:09:09;20.48;;;15.23;;
42682;SDS011;28293;50.930;3.464;2022-09-30T08:11:36;18.95;;;14.77;;
42682;SDS011;28293;50.930;3.464;2022-09-30T08:14:02;18.58;;;14.10;;
42682;SDS011;28293;50.930;3.464;2022-09-30T08:16:29;19.25;;;14.43;;
42682;SDS011;28293;50.930;3.464;2022-09-30T08:18:55;20.88;;;15.43;;
42682;SDS011;28293;50.930;3.464;2022-09-30T08:21:22;19.52;;;15.82;;
42682;SDS011;28293;50.930;3.464;2022-09-30T08:23:48;18.55;;;14.73;;
42682;SDS011;28293;50.930;3.464;2022-09-30T08:26:15;18.08;;;12.77;;
42682;SDS011;28293;50.930;3.464;2022-09-30T08:28:41;17.90;;;12.70;;
42682;SDS011;28293;50.930;3.464;2022-09-30T08:31:11;22.65;;;13.88;;
42682;SDS011;28293;50.930;3.464;2022-09-30T08:33:45;18.40;;;12.38;;
42682;SDS011;28293;50.930;3.464;2022-09-30T08:36:15;17.67;;;12.75;;
42682;SDS011;28293;50.930;3.464;2022-09-30T08:38:42;18.13;;;12.32;;
42682;SDS011;28293;50.930;3.464;2022-09-30T08:49:02;15.88;;;11.30;;
42682;SDS011;28293;50.930;3.464;2022-09-30T08:51:55;14.48;;;11.57;;
42682;SDS011;28293;50.930;3.464;2022-09-30T08:54:23;16.05;;;11.57;;
42682;SDS011;28293;50.930;3.464;2022-09-30T08:56:54;15.48;;;11.07;;
42682;SDS011;28293;50.930;3.464;2022-09-30T09:01:57;14.82;;;11.85;;
42682;SDS011;28293;50.930;3.464;2022-09-30T09:04:43;14.00;;;11.13;;
42682;SDS011;28293;50.930;3.464;2022-09-30T09:20:54;15.10;;;11.55;;
42682;SDS011;28293;50.930;3.464;2022-09-30T09:23:28;14.68;;;11.68;;
42682;SDS011;28293;50.930;3.464;2022-09-30T09:25:56;15.52;;;11.20;;
42682;SDS011;28293;50.930;3.464;2022-09-30T09:31:07;14.77;;;10.85;;
42682;SDS011;28293;50.930;3.464;2022-09-30T09:33:38;14.15;;;10.32;;
42682;SDS011;28293;50.930;3.464;2022-09-30T09:38:44;15.90;;;10.32;;
42682;SDS011;28293;50.930;3.464;2022-09-30T09:47:12;15.43;;;9.85;;
42682;SDS011;28293;50.930;3.464;2022-09-30T09:49:45;13.95;;;10.32;;
42682;SDS011;28293;50.930;3.464;2022-09-30T09:55:10;14.57;;;9.25;;
42682;SDS011;28293;50.930;3.464;2022-09-30T09:57:37;12.98;;;9.27;;
42682;SDS011;28293;50.930;3.464;2022-09-30T10:00:05;12.73;;;9.32;;
42682;SDS011;28293;50.930;3.464;2022-09-30T10:05:33;12.27;;;9.35;;
42682;SDS011;28293;50.930;3.464;2022-09-30T10:10:43;10.90;;;7.40;;
42682;SDS011;28293;50.930;3.464;2022-09-30T10:13:22;11.00;;;7.72;;
42682;SDS011;28293;50.930;3.464;2022-09-30T10:15:55;9.43;;;6.65;;
42682;SDS011;28293;50.930;3.464;2022-09-30T10:20:53;14.25;;;8.10;;
42682;SDS011;28293;50.930;3.464;2022-09-30T10:23:24;10.98;;;7.68;;
42682;SDS011;28293;50.930;3.464;2022-09-30T10:26:02;11.05;;;7.60;;
42682;SDS011;28293;50.930;3.464;2022-09-30T10:36:35;10.65;;;6.15;;
42682;SDS011;28293;50.930;3.464;2022-09-30T10:39:48;9.10;;;6.47;;
42682;SDS011;28293;50.930;3.464;2022-09-30T10:42:02;7.90;;;5.38;;
42682;SDS011;28293;50.930;3.464;2022-09-30T10:44:41;10.52;;;5.40;;
42682;SDS011;28293;50.930;3.464;2022-09-30T10:47:07;8.35;;;5.95;;
42682;SDS011;28293;50.930;3.464;2022-09-30T10:52:17;8.57;;;5.65;;
42682;SDS011;28293;50.930;3.464;2022-09-30T10:54:52;10.05;;;5.13;;
42682;SDS011;28293;50.930;3.464;2022-09-30T10:57:26;9.23;;;5.50;;
42682;SDS011;28293;50.930;3.464;2022-09-30T11:00:02;7.90;;;5.13;;
42682;SDS011;28293;50.930;3.464;2022-09-30T11:02:41;7.80;;;4.47;;
42682;SDS011;28293;50.930;3.464;2022-09-30T11:08:02;8.57;;;4.05;;
42682;SDS011;28293;50.930;3.464;2022-09-30T11:13:53;8.48;;;5.15;;
42682;SDS011;28293;50.930;3.464;2022-09-30T11:25:19;8.93;;;5.57;;
42682;SDS011;28293;50.930;3.464;2022-09-30T11:30:59;7.93;;;4.45;;
42682;SDS011;28293;50.930;3.464;2022-09-30T11:33:34;9.73;;;5.32;;
42682;SDS011;28293;50.930;3.464;2022-09-30T11:39:09;9.45;;;4.88;;
42682;SDS011;28293;50.930;3.464;2022-09-30T11:47:01;7.85;;;4.97;;
42682;SDS011;28293;50.930;3.464;2022-09-30T11:50:03;7.05;;;4.90;;
42682;SDS011;28293;50.930;3.464;2022-09-30T11:52:55;8.60;;;5.07;;
42682;SDS011;28293;50.930;3.464;2022-09-30T11:56:23;6.10;;;3.78;;
42682;SDS011;28293;50.930;3.464;2022-09-30T11:58:22;7.18;;;3.78;;
42682;SDS011;28293;50.930;3.464;2022-09-30T12:00:57;8.77;;;4.13;;
42682;SDS011;28293;50.930;3.464;2022-09-30T12:03:48;7.82;;;4.78;;
42682;SDS011;28293;50.930;3.464;2022-09-30T12:06:27;7.57;;;4.15;;
42682;SDS011;28293;50.930;3.464;2022-09-30T12:09:03;8.50;;;4.43;;
42682;SDS011;28293;50.930;3.464;2022-09-30T12:11:52;9.80;;;4.55;;
42682;SDS011;28293;50.930;3.464;2022-09-30T12:14:22;8.23;;;4.15;;
42682;SDS011;28293;50.930;3.464;2022-09-30T12:16:54;7.72;;;3.92;;
42682;SDS011;28293;50.930;3.464;2022-09-30T12:19:34;9.05;;;4.55;;
42682;SDS011;28293;50.930;3.464;2022-09-30T12:22:10;7.80;;;4.43;;
42682;SDS011;28293;50.930;3.464;2022-09-30T12:24:41;8.50;;;4.47;;
42682;SDS011;28293;50.930;3.464;2022-09-30T12:29:48;7.28;;;3.67;;
42682;SDS011;28293;50.930;3.464;2022-09-30T12:41:44;7.18;;;2.97;;
42682;SDS011;28293;50.930;3.464;2022-09-30T12:49:43;5.55;;;3.00;;
42682;SDS011;28293;50.930;3.464;2022-09-30T12:52:14;5.05;;;2.90;;
42682;SDS011;28293;50.930;3.464;2022-09-30T12:54:48;6.25;;;3.03;;
42682;SDS011;28293;50.930;3.464;2022-09-30T12:57:23;6.25;;;3.30;;
42682;SDS011;28293;50.930;3.464;2022-09-30T12:59:56;4.63;;;2.63;;
42682;SDS011;28293;50.930;3.464;2022-09-30T13:02:33;5.32;;;2.92;;
42682;SDS011;28293;50.930;3.464;2022-09-30T13:10:33;7.55;;;3.05;;
42682;SDS011;28293;50.930;3.464;2022-09-30T13:13:55;4.35;;;2.70;;
42682;SDS011;28293;50.930;3.464;2022-09-30T13:15:49;6.90;;;3.58;;
42682;SDS011;28293;50.930;3.464;2022-09-30T13:23:39;3.75;;;2.35;;
42682;SDS011;28293;50.930;3.464;2022-09-30T13:28:51;6.72;;;2.90;;
42682;SDS011;28293;50.930;3.464;2022-09-30T13:31:22;5.75;;;3.08;;
42682;SDS011;28293;50.930;3.464;2022-09-30T13:36:27;5.93;;;3.42;;
42682;SDS011;28293;50.930;3.464;2022-09-30T13:39:22;6.50;;;3.00;;
42682;SDS011;28293;50.930;3.464;2022-09-30T13:53:16;7.00;;;3.35;;
42682;SDS011;28293;50.930;3.464;2022-09-30T13:55:52;6.43;;;3.15;;
42682;SDS011;28293;50.930;3.464;2022-09-30T14:07:00;5.97;;;3.40;;
42682;SDS011;28293;50.930;3.464;2022-09-30T14:23:42;6.60;;;3.50;;
42682;SDS011;28293;50.930;3.464;2022-09-30T14:29:15;5.30;;;3.00;;
42682;SDS011;28293;50.930;3.464;2022-09-30T14:31:45;7.47;;;3.83;;
42682;SDS011;28293;50.930;3.464;2022-09-30T14:34:12;5.18;;;3.00;;
42682;SDS011;28293;50.930;3.464;2022-09-30T14:36:38;7.10;;;3.20;;
42682;SDS011;28293;50.930;3.464;2022-09-30T14:39:05;7.70;;;3.30;;
42682;SDS011;28293;50.930;3.464;2022-09-30T14:41:48;6.13;;;3.42;;
42682;SDS011;28293;50.930;3.464;2022-09-30T14:44:19;7.05;;;3.35;;
42682;SDS011;28293;50.930;3.464;2022-09-30T14:46:47;8.10;;;4.30;;
42682;SDS011;28293;50.930;3.464;2022-09-30T14:49:15;11.02;;;4.25;;
42682;SDS011;28293;50.930;3.464;2022-09-30T14:51:52;8.02;;;4.60;;
42682;SDS011;28293;50.930;3.464;2022-09-30T14:54:22;12.45;;;7.13;;
42682;SDS011;28293;50.930;3.464;2022-09-30T14:56:53;9.18;;;4.32;;
42682;SDS011;28293;50.930;3.464;2022-09-30T14:59:27;14.75;;;7.88;;
42682;SDS011;28293;50.930;3.464;2022-09-30T15:01:58;14.90;;;8.63;;
42682;SDS011;28293;50.930;3.464;2022-09-30T15:06:57;4.50;;;2.80;;
42682;SDS011;28293;50.930;3.464;2022-09-30T15:09:35;3.90;;;2.08;;
42682;SDS011;28293;50.930;3.464;2022-09-30T15:12:06;5.20;;;2.60;;
42682;SDS011;28293;50.930;3.464;2022-09-30T15:14:48;5.75;;;2.83;;
42682;SDS011;28293;50.930;3.464;2022-09-30T15:17:27;4.93;;;2.50;;
42682;SDS011;28293;50.930;3.464;2022-09-30T15:19:55;5.97;;;2.40;;
42682;SDS011;28293;50.930;3.464;2022-09-30T15:22:22;6.25;;;2.38;;
42682;SDS011;28293;50.930;3.464;2022-09-30T15:24:50;6.32;;;2.53;;
42682;SDS011;28293;50.930;3.464;2022-09-30T15:27:22;5.78;;;2.38;;
42682;SDS011;28293;50.930;3.464;2022-09-30T15:30:33;6.57;;;2.47;;
42682;SDS011;28293;50.930;3.464;2022-09-30T15:32:39;4.63;;;2.38;;
42682;SDS011;28293;50.930;3.464;2022-09-30T15:35:07;5.85;;;2.45;;
42682;SDS011;28293;50.930;3.464;2022-09-30T15:37:39;8.43;;;3.15;;
42682;SDS011;28293;50.930;3.464;2022-09-30T15:40:12;4.55;;;2.50;;
42682;SDS011;28293;50.930;3.464;2022-09-30T15:42:59;4.68;;;2.67;;
42682;SDS011;28293;50.930;3.464;2022-09-30T15:50:49;4.68;;;2.67;;
42682;SDS011;28293;50.930;3.464;2022-09-30T15:53:21;6.43;;;2.40;;
42682;SDS011;28293;50.930;3.464;2022-09-30T15:55:49;5.47;;;2.65;;
42682;SDS011;28293;50.930;3.464;2022-09-30T16:01:11;6.03;;;3.08;;
42682;SDS011;28293;50.930;3.464;2022-09-30T16:03:38;6.63;;;2.13;;
42682;SDS011;28293;50.930;3.464;2022-09-30T16:06:11;4.35;;;2.42;;
42682;SDS011;28293;50.930;3.464;2022-09-30T16:08:42;5.10;;;2.47;;
42682;SDS011;28293;50.930;3.464;2022-09-30T16:11:30;6.88;;;3.10;;
42682;SDS011;28293;50.930;3.464;2022-09-30T16:14:04;5.82;;;3.00;;
42682;SDS011;28293;50.930;3.464;2022-09-30T16:16:34;9.45;;;6.32;;
42682;SDS011;28293;50.930;3.464;2022-09-30T16:19:02;8.25;;;5.53;;
42682;SDS011;28293;50.930;3.464;2022-09-30T16:21:39;7.57;;;4.30;;
42682;SDS011;28293;50.930;3.464;2022-09-30T16:26:47;6.85;;;4.15;;
42682;SDS011;28293;50.930;3.464;2022-09-30T16:29:18;7.80;;;3.50;;
42682;SDS011;28293;50.930;3.464;2022-09-30T16:31:44;8.05;;;3.45;;
42682;SDS011;28293;50.930;3.464;2022-09-30T16:34:17;5.95;;;3.10;;
42682;SDS011;28293;50.930;3.464;2022-09-30T16:36:43;6.13;;;3.42;;
42682;SDS011;28293;50.930;3.464;2022-09-30T16:39:10;16.98;;;4.43;;
42682;SDS011;28293;50.930;3.464;2022-09-30T16:41:38;5.82;;;3.33;;
42682;SDS011;28293;50.930;3.464;2022-09-30T16:44:04;5.88;;;3.15;;
42682;SDS011;28293;50.930;3.464;2022-09-30T16:46:30;4.93;;;2.78;;
42682;SDS011;28293;50.930;3.464;2022-09-30T16:48:57;5.97;;;2.95;;
42682;SDS011;28293;50.930;3.464;2022-09-30T16:51:26;6.55;;;3.05;;
42682;SDS011;28293;50.930;3.464;2022-09-30T16:53:52;6.05;;;3.25;;
42682;SDS011;28293;50.930;3.464;2022-09-30T16:56:18;7.93;;;3.45;;
42682;SDS011;28293;50.930;3.464;2022-09-30T16:58:44;6.20;;;3.13;;
42682;SDS011;28293;50.930;3.464;2022-09-30T17:01:15;5.93;;;3.33;;
42682;SDS011;28293;50.930;3.464;2022-09-30T17:03:44;6.55;;;3.10;;
42682;SDS011;28293;50.930;3.464;2022-09-30T17:06:10;6.30;;;3.25;;
42682;SDS011;28293;50.930;3.464;2022-09-30T17:08:37;6.05;;;3.30;;
42682;SDS011;28293;50.930;3.464;2022-09-30T17:11:02;6.47;;;3.17;;
42682;SDS011;28293;50.930;3.464;2022-09-30T17:13:28;5.25;;;3.17;;
42682;SDS011;28293;50.930;3.464;2022-09-30T17:15:54;5.15;;;3.25;;
42682;SDS011;28293;50.930;3.464;2022-09-30T17:18:20;5.65;;;3.17;;
42682;SDS011;28293;50.930;3.464;2022-09-30T17:20:47;5.30;;;3.22;;
42682;SDS011;28293;50.930;3.464;2022-09-30T17:23:16;5.95;;;3.15;;
42682;SDS011;28293;50.930;3.464;2022-09-30T17:25:46;9.40;;;3.75;;
42682;SDS011;28293;50.930;3.464;2022-09-30T17:28:12;7.30;;;3.60;;
42682;SDS011;28293;50.930;3.464;2022-09-30T17:30:38;8.00;;;3.97;;
42682;SDS011;28293;50.930;3.464;2022-09-30T17:33:05;7.72;;;4.03;;
42682;SDS011;28293;50.930;3.464;2022-09-30T17:35:38;6.97;;;4.50;;
42682;SDS011;28293;50.930;3.464;2022-09-30T17:38:07;8.43;;;4.40;;
42682;SDS011;28293;50.930;3.464;2022-09-30T17:40:37;7.60;;;3.90;;
42682;SDS011;28293;50.930;3.464;2022-09-30T17:45:48;6.75;;;3.55;;
42682;SDS011;28293;50.930;3.464;2022-09-30T17:48:15;6.65;;;3.90;;
42682;SDS011;28293;50.930;3.464;2022-09-30T17:50:42;7.28;;;3.88;;
42682;SDS011;28293;50.930;3.464;2022-09-30T17:53:10;7.40;;;4.32;;
42682;SDS011;28293;50.930;3.464;2022-09-30T17:55:42;8.05;;;3.88;;
42682;SDS011;28293;50.930;3.464;2022-09-30T17:58:11;9.48;;;3.53;;
42682;SDS011;28293;50.930;3.464;2022-09-30T18:00:37;7.70;;;3.85;;
42682;SDS011;28293;50.930;3.464;2022-09-30T18:03:03;7.70;;;4.05;;
42682;SDS011;28293;50.930;3.464;2022-09-30T18:05:29;8.77;;;4.60;;
42682;SDS011;28293;50.930;3.464;2022-09-30T18:07:57;7.93;;;4.10;;
42682;SDS011;28293;50.930;3.464;2022-09-30T18:10:23;7.05;;;3.72;;
42682;SDS011;28293;50.930;3.464;2022-09-30T18:12:50;5.72;;;3.60;;
42682;SDS011;28293;50.930;3.464;2022-09-30T18:15:17;7.70;;;4.70;;
42682;SDS011;28293;50.930;3.464;2022-09-30T18:17:44;5.75;;;3.97;;
42682;SDS011;28293;50.930;3.464;2022-09-30T18:20:10;7.57;;;4.18;;
42682;SDS011;28293;50.930;3.464;2022-09-30T18:22:36;8.00;;;3.95;;
42682;SDS011;28293;50.930;3.464;2022-09-30T18:25:02;7.75;;;3.75;;
42682;SDS011;28293;50.930;3.464;2022-09-30T18:27:44;8.05;;;4.10;;
42682;SDS011;28293;50.930;3.464;2022-09-30T18:30:13;9.43;;;4.68;;
42682;SDS011;28293;50.930;3.464;2022-09-30T18:32:39;8.20;;;4.28;;
42682;SDS011;28293;50.930;3.464;2022-09-30T18:35:06;7.22;;;4.18;;
42682;SDS011;28293;50.930;3.464;2022-09-30T18:37:36;6.55;;;3.72;;
42682;SDS011;28293;50.930;3.464;2022-09-30T18:40:02;6.32;;;3.75;;
42682;SDS011;28293;50.930;3.464;2022-09-30T18:42:28;7.43;;;3.50;;